Corona Splendor — 7JRD — position and weather

sailwx.info

Track history (hours):
 
Tides and Currents Weather Stations Pressure Air Temp Water Temp Dewpoint Dewpoint Depression Visibility Wind Speed Wind Dir Waves Ship Positions

Corona Splendor

Last reported at 2018-Jun-19 06:16 UTC. Time now 2018-Jun-22 16:26 UTC.
Position S 27°47' E 153°51'.

Length 229 m; draft 12.9 m.

Type: Cargo ship. MMSI: 432969000.

Date/timePositionNaut miles runAvg speedWind from/ knotsBaromVisibWave heightAir tempDewpointWater temp
2018-Jun-19 06:16S 27°47' E 153°51'29112.4
2018-Jun-18 06:47S 32°32' E 152°44'414.2
2018-Jun-18 06:30S 32°34' E 152°40'714.0
2018-Jun-18 06:00S 32°39' E 152°34'713.7
2018-Jun-18 05:31S 32°43' E 152°27'714.3
2018-Jun-18 05:01S 32°46' E 152°20'714.1
2018-Jun-18 04:30S 32°50' E 152°13'713.7
2018-Jun-18 04:00S 32°53' E 152°05'713.3
2018-Jun-18 03:30S 32°55' E 151°58'611.9
2018-Jun-18 03:00S 32°57' E 151°51'3 6.2
2018-Jun-18 02:30S 32°55' E 151°48'2 3.2
2018-Jun-18 02:00S 32°54' E 151°46'1 1.6
2018-Jun-18 01:29S 32°53' E 151°46'0 0.0
2018-Jun-18 00:59S 32°53' E 151°46'0 0.0
2018-Jun-18 00:29S 32°53' E 151°46'0 0.0
2018-Jun-17 23:59S 32°53' E 151°46'0 0.0
2018-Jun-17 23:29S 32°53' E 151°46'0 0.0
2018-Jun-17 22:59S 32°53' E 151°46'0 0.0
2018-Jun-17 22:29S 32°53' E 151°46'0 0.0
2018-Jun-17 21:56S 32°53' E 151°46'0 0.0
2018-Jun-17 21:26S 32°53' E 151°46'0 0.0
2018-Jun-17 20:59S 32°53' E 151°46'0 0.0
2018-Jun-17 20:14S 32°53' E 151°46'0 0.0
2018-Jun-17 19:50S 32°53' E 151°46'0 0.0
2018-Jun-17 19:26S 32°53' E 151°46'0 0.0
2018-Jun-17 18:59S 32°53' E 151°46'0 0.0
2018-Jun-17 18:26S 32°53' E 151°46'0 0.0
2018-Jun-17 17:59S 32°53' E 151°46'0 0.0
2018-Jun-17 17:26S 32°53' E 151°46'0 0.0
2018-Jun-17 16:59S 32°53' E 151°46'0 0.0
2018-Jun-17 16:29S 32°53' E 151°46'0 0.0
2018-Jun-17 15:59S 32°53' E 151°46'0 0.0
2018-Jun-17 15:29S 32°53' E 151°46'0 0.0
2018-Jun-17 14:59S 32°53' E 151°46'0 0.0
2018-Jun-17 14:29S 32°53' E 151°46'0 0.0
2018-Jun-17 13:59S 32°53' E 151°46'0 0.0
2018-Jun-17 13:29S 32°53' E 151°46'0 0.0
2018-Jun-17 12:59S 32°53' E 151°46'0 0.0
2018-Jun-17 12:29S 32°53' E 151°46'0 0.0
2018-Jun-17 11:56S 32°53' E 151°46'0 0.0
2018-Jun-17 11:26S 32°53' E 151°46'0 0.0
2018-Jun-17 10:59S 32°53' E 151°46'0 0.0
2018-Jun-17 10:29S 32°53' E 151°46'0 0.0
2018-Jun-17 09:59S 32°53' E 151°46'0 0.0
2018-Jun-17 09:29S 32°53' E 151°46'0 0.0
2018-Jun-17 08:59S 32°53' E 151°46'0 0.0
2018-Jun-17 08:29S 32°53' E 151°46'0 0.0
2018-Jun-17 07:59S 32°53' E 151°46'0 0.0
2018-Jun-17 07:29S 32°53' E 151°46'0 0.0
2018-Jun-17 07:00S 32°53' E 151°46'0 0.4
2018-Jun-17 06:30S 32°53' E 151°46'2 4.2
2018-Jun-17 06:00S 32°55' E 151°47'4 7.7
2018-Jun-17 05:30S 32°56' E 151°52'3 6.2
2018-Jun-17 05:00S 32°59' E 151°53'2 4.2
2018-Jun-17 04:30S 33°01' E 151°54'2 4.9
2018-Jun-17 04:00S 33°03' E 151°56'2 4.8
2018-Jun-17 03:30S 33°04' E 151°58'2 4.7
2018-Jun-17 03:00S 33°06' E 151°60'2 4.5
2018-Jun-17 02:30S 33°08' E 152°01'2 4.8
2018-Jun-17 02:00S 33°10' E 152°03'3 7.0
2018-Jun-17 01:30S 33°13' E 152°05'15 0.9
2018-Jun-16 07:39S 33°16' E 152°23'0 1.5
2018-Jun-16 07:27S 33°16' E 152°23'1 1.6
2018-Jun-16 06:57S 33°15' E 152°22'1 1.6
2018-Jun-16 06:21S 33°15' E 152°21'1 1.7
2018-Jun-16 05:57S 33°14' E 152°21'1 1.7
2018-Jun-16 05:27S 33°14' E 152°20'1 1.8
2018-Jun-16 04:57S 33°13' E 152°19'1 1.6
2018-Jun-16 04:27S 33°12' E 152°19'1 1.8
2018-Jun-16 03:45S 33°11' E 152°18'0 1.8
2018-Jun-16 03:30S 33°11' E 152°18'1 1.8
2018-Jun-16 02:55S 33°10' E 152°17'1 2.1
2018-Jun-16 02:28S 33°09' E 152°17'1 2.8
2018-Jun-16 02:00S 33°08' E 152°17'510.7
2018-Jun-16 01:30S 33°03' E 152°20'713.6
2018-Jun-16 01:00S 32°58' E 152°26'713.7
2018-Jun-16 00:30S 32°54' E 152°32'713.6
2018-Jun-16 00:00S 32°49' E 152°38'713.6
2018-Jun-15 23:29S 32°44' E 152°43'611.7
2018-Jun-15 23:00S 32°39' E 152°47'1 2.0
2018-Jun-15 22:29S 32°40' E 152°47'1 1.8
2018-Jun-15 21:59S 32°41' E 152°46'1 2.0
2018-Jun-15 21:29S 32°42' E 152°45'1 2.1
2018-Jun-15 20:59S 32°43' E 152°45'1 2.1
2018-Jun-15 20:29S 32°43' E 152°44'1 2.1
2018-Jun-15 19:59S 32°44' E 152°43'1 2.0
2018-Jun-15 19:29S 32°45' E 152°43'1 2.2
2018-Jun-15 18:59S 32°46' E 152°42'1 2.2
2018-Jun-15 18:23S 32°47' E 152°41'1 2.1
2018-Jun-15 17:59S 32°48' E 152°41'1 2.1
2018-Jun-15 17:29S 32°49' E 152°40'1 2.1
2018-Jun-15 16:59S 32°50' E 152°39'1 2.2
2018-Jun-15 16:29S 32°51' E 152°39'1 2.2
2018-Jun-15 15:59S 32°52' E 152°38'1 2.3
2018-Jun-15 15:29S 32°53' E 152°37'1 2.4
2018-Jun-15 14:59S 32°54' E 152°37'1 2.5
2018-Jun-15 14:29S 32°55' E 152°36'1 2.6
2018-Jun-15 13:58S 32°56' E 152°35'1 2.4
2018-Jun-15 13:28S 32°57' E 152°34'1 2.4
2018-Jun-15 12:58S 32°58' E 152°33'1 2.4
2018-Jun-15 12:28S 32°59' E 152°32'1 2.6
2018-Jun-15 11:58S 32°60' E 152°31'1 2.5
2018-Jun-15 11:28S 33°01' E 152°30'1 2.2
2018-Jun-15 10:58S 33°01' E 152°29'1 2.2
2018-Jun-15 10:22S 33°02' E 152°28'1 2.0
2018-Jun-15 09:58S 33°03' E 152°27'1 2.0
2018-Jun-15 09:28S 33°03' E 152°26'1 2.0
2018-Jun-15 08:58S 33°04' E 152°25'1 1.9
2018-Jun-15 08:28S 33°04' E 152°24'1 1.9
2018-Jun-15 07:58S 33°04' E 152°23'1 1.9
2018-Jun-15 07:28S 33°05' E 152°22'1 1.9
2018-Jun-15 07:00S 33°05' E 152°22'4 8.1
2018-Jun-15 06:30S 33°09' E 152°24'2 4.1
2018-Jun-15 05:56S 33°11' E 152°24'1 2.4
2018-Jun-15 05:29S 33°12' E 152°22'1 2.4
2018-Jun-15 04:59S 33°12' E 152°21'1 2.5
2018-Jun-15 04:26S 33°12' E 152°19'1 2.4
2018-Jun-15 03:59S 33°13' E 152°18'1 2.3
2018-Jun-15 03:29S 33°13' E 152°17'1 2.4
2018-Jun-15 02:59S 33°13' E 152°15'1 2.3
2018-Jun-15 02:29S 33°13' E 152°14'1 2.3
2018-Jun-15 01:57S 33°13' E 152°12'3 7.6
2018-Jun-15 01:30S 33°17' E 152°13'4 0.2
2018-Jun-14 05:03S 33°16' E 152°18'0 0.9
2018-Jun-14 04:54S 33°16' E 152°18'0 1.0
2018-Jun-14 04:30S 33°16' E 152°18'1 1.1
2018-Jun-14 03:51S 33°15' E 152°17'1 1.3
2018-Jun-14 03:18S 33°15' E 152°17'0 1.2
2018-Jun-14 03:00S 33°14' E 152°17'1 1.3
2018-Jun-14 02:27S 33°13' E 152°17'1 1.4
2018-Jun-14 02:00S 33°13' E 152°17'1 1.4
2018-Jun-14 01:30S 33°12' E 152°17'1 1.7
2018-Jun-14 01:00S 33°11' E 152°17'1 1.7
2018-Jun-14 00:30S 33°10' E 152°17'1 1.8
2018-Jun-14 00:00S 33°10' E 152°17'1 1.8
2018-Jun-13 23:30S 33°09' E 152°16'1 1.9
2018-Jun-13 23:00S 33°08' E 152°15'4 7.4
2018-Jun-13 22:30S 33°04' E 152°15'815.3
2018-Jun-13 22:00S 32°57' E 152°13'714.4
2018-Jun-13 21:30S 32°50' E 152°15'815.2
2018-Jun-13 21:00S 32°46' E 152°23'714.9
2018-Jun-13 20:30S 32°43' E 152°31'714.6
2018-Jun-13 20:00S 32°40' E 152°39'714.6
2018-Jun-13 19:30S 32°36' E 152°47'813.9
2018-Jun-13 18:56S 32°30' E 152°52'25815.8
2018-Jun-13 02:35S 28°17' E 153°51'117.0
2018-Jun-13 02:30S 28°16' E 153°51'1016.9
2018-Jun-13 01:56S 28°06' E 153°51'1117.0
2018-Jun-13 01:19S 27°55' E 153°51'816.7
2018-Jun-13 00:50S 27°47' E 153°51'616.3
2018-Jun-13 00:27S 27°41' E 153°51'816.8
2018-Jun-12 23:57S 27°33' E 153°51'817.2
2018-Jun-12 23:30S 27°25' E 153°51'  
Track history (hours):
 
Tides and Currents Weather Stations Pressure Air Temp Water Temp Dewpoint Dewpoint Depression Visibility Wind Speed Wind Dir Waves Ship Positions

Corona Splendor

Last reported at 2018-Jun-19 06:16 UTC. Time now 2018-Jun-22 16:26 UTC.
Position S 27°47' E 153°51'.

Length 229 m; draft 12.9 m.

Type: Cargo ship. MMSI: 432969000.

Date/timePositionNaut miles runAvg speedWind from/ knotsBaromVisibWave heightAir tempDewpointWater temp
2018-Jun-19 06:16S 27°47' E 153°51'29112.4
2018-Jun-18 06:47S 32°32' E 152°44'414.2
2018-Jun-18 06:30S 32°34' E 152°40'714.0
2018-Jun-18 06:00S 32°39' E 152°34'713.7
2018-Jun-18 05:31S 32°43' E 152°27'714.3
2018-Jun-18 05:01S 32°46' E 152°20'714.1
2018-Jun-18 04:30S 32°50' E 152°13'713.7
2018-Jun-18 04:00S 32°53' E 152°05'713.3
2018-Jun-18 03:30S 32°55' E 151°58'611.9
2018-Jun-18 03:00S 32°57' E 151°51'3 6.2
2018-Jun-18 02:30S 32°55' E 151°48'2 3.2
2018-Jun-18 02:00S 32°54' E 151°46'1 1.6
2018-Jun-18 01:29S 32°53' E 151°46'0 0.0
2018-Jun-18 00:59S 32°53' E 151°46'0 0.0
2018-Jun-18 00:29S 32°53' E 151°46'0 0.0
2018-Jun-17 23:59S 32°53' E 151°46'0 0.0
2018-Jun-17 23:29S 32°53' E 151°46'0 0.0
2018-Jun-17 22:59S 32°53' E 151°46'0 0.0
2018-Jun-17 22:29S 32°53' E 151°46'0 0.0
2018-Jun-17 21:56S 32°53' E 151°46'0 0.0
2018-Jun-17 21:26S 32°53' E 151°46'0 0.0
2018-Jun-17 20:59S 32°53' E 151°46'0 0.0
2018-Jun-17 20:14S 32°53' E 151°46'0 0.0
2018-Jun-17 19:50S 32°53' E 151°46'0 0.0
2018-Jun-17 19:26S 32°53' E 151°46'0 0.0
2018-Jun-17 18:59S 32°53' E 151°46'0 0.0
2018-Jun-17 18:26S 32°53' E 151°46'0 0.0
2018-Jun-17 17:59S 32°53' E 151°46'0 0.0
2018-Jun-17 17:26S 32°53' E 151°46'0 0.0
2018-Jun-17 16:59S 32°53' E 151°46'0 0.0
2018-Jun-17 16:29S 32°53' E 151°46'0 0.0
2018-Jun-17 15:59S 32°53' E 151°46'0 0.0
2018-Jun-17 15:29S 32°53' E 151°46'0 0.0
2018-Jun-17 14:59S 32°53' E 151°46'0 0.0
2018-Jun-17 14:29S 32°53' E 151°46'0 0.0
2018-Jun-17 13:59S 32°53' E 151°46'0 0.0
2018-Jun-17 13:29S 32°53' E 151°46'0 0.0
2018-Jun-17 12:59S 32°53' E 151°46'0 0.0
2018-Jun-17 12:29S 32°53' E 151°46'0 0.0
2018-Jun-17 11:56S 32°53' E 151°46'0 0.0
2018-Jun-17 11:26S 32°53' E 151°46'0 0.0
2018-Jun-17 10:59S 32°53' E 151°46'0 0.0
2018-Jun-17 10:29S 32°53' E 151°46'0 0.0
2018-Jun-17 09:59S 32°53' E 151°46'0 0.0
2018-Jun-17 09:29S 32°53' E 151°46'0 0.0
2018-Jun-17 08:59S 32°53' E 151°46'0 0.0
2018-Jun-17 08:29S 32°53' E 151°46'0 0.0
2018-Jun-17 07:59S 32°53' E 151°46'0 0.0
2018-Jun-17 07:29S 32°53' E 151°46'0 0.0
2018-Jun-17 07:00S 32°53' E 151°46'0 0.4
2018-Jun-17 06:30S 32°53' E 151°46'2 4.2
2018-Jun-17 06:00S 32°55' E 151°47'4 7.7
2018-Jun-17 05:30S 32°56' E 151°52'3 6.2
2018-Jun-17 05:00S 32°59' E 151°53'2 4.2
2018-Jun-17 04:30S 33°01' E 151°54'2 4.9
2018-Jun-17 04:00S 33°03' E 151°56'2 4.8
2018-Jun-17 03:30S 33°04' E 151°58'2 4.7
2018-Jun-17 03:00S 33°06' E 151°60'2 4.5
2018-Jun-17 02:30S 33°08' E 152°01'2 4.8
2018-Jun-17 02:00S 33°10' E 152°03'3 7.0
2018-Jun-17 01:30S 33°13' E 152°05'15 0.9
2018-Jun-16 07:39S 33°16' E 152°23'0 1.5
2018-Jun-16 07:27S 33°16' E 152°23'1 1.6
2018-Jun-16 06:57S 33°15' E 152°22'1 1.6
2018-Jun-16 06:21S 33°15' E 152°21'1 1.7
2018-Jun-16 05:57S 33°14' E 152°21'1 1.7
2018-Jun-16 05:27S 33°14' E 152°20'1 1.8
2018-Jun-16 04:57S 33°13' E 152°19'1 1.6
2018-Jun-16 04:27S 33°12' E 152°19'1 1.8
2018-Jun-16 03:45S 33°11' E 152°18'0 1.8
2018-Jun-16 03:30S 33°11' E 152°18'1 1.8
2018-Jun-16 02:55S 33°10' E 152°17'1 2.1
2018-Jun-16 02:28S 33°09' E 152°17'1 2.8
2018-Jun-16 02:00S 33°08' E 152°17'510.7
2018-Jun-16 01:30S 33°03' E 152°20'713.6
2018-Jun-16 01:00S 32°58' E 152°26'713.7
2018-Jun-16 00:30S 32°54' E 152°32'713.6
2018-Jun-16 00:00S 32°49' E 152°38'713.6
2018-Jun-15 23:29S 32°44' E 152°43'611.7
2018-Jun-15 23:00S 32°39' E 152°47'1 2.0
2018-Jun-15 22:29S 32°40' E 152°47'1 1.8
2018-Jun-15 21:59S 32°41' E 152°46'1 2.0
2018-Jun-15 21:29S 32°42' E 152°45'1 2.1
2018-Jun-15 20:59S 32°43' E 152°45'1 2.1
2018-Jun-15 20:29S 32°43' E 152°44'1 2.1
2018-Jun-15 19:59S 32°44' E 152°43'1 2.0
2018-Jun-15 19:29S 32°45' E 152°43'1 2.2
2018-Jun-15 18:59S 32°46' E 152°42'1 2.2
2018-Jun-15 18:23S 32°47' E 152°41'1 2.1
2018-Jun-15 17:59S 32°48' E 152°41'1 2.1
2018-Jun-15 17:29S 32°49' E 152°40'1 2.1
2018-Jun-15 16:59S 32°50' E 152°39'1 2.2
2018-Jun-15 16:29S 32°51' E 152°39'1 2.2
2018-Jun-15 15:59S 32°52' E 152°38'1 2.3
2018-Jun-15 15:29S 32°53' E 152°37'1 2.4
2018-Jun-15 14:59S 32°54' E 152°37'1 2.5
2018-Jun-15 14:29S 32°55' E 152°36'1 2.6
2018-Jun-15 13:58S 32°56' E 152°35'1 2.4
2018-Jun-15 13:28S 32°57' E 152°34'1 2.4
2018-Jun-15 12:58S 32°58' E 152°33'1 2.4
2018-Jun-15 12:28S 32°59' E 152°32'1 2.6
2018-Jun-15 11:58S 32°60' E 152°31'1 2.5
2018-Jun-15 11:28S 33°01' E 152°30'1 2.2
2018-Jun-15 10:58S 33°01' E 152°29'1 2.2
2018-Jun-15 10:22S 33°02' E 152°28'1 2.0
2018-Jun-15 09:58S 33°03' E 152°27'1 2.0
2018-Jun-15 09:28S 33°03' E 152°26'1 2.0
2018-Jun-15 08:58S 33°04' E 152°25'1 1.9
2018-Jun-15 08:28S 33°04' E 152°24'1 1.9
2018-Jun-15 07:58S 33°04' E 152°23'1 1.9
2018-Jun-15 07:28S 33°05' E 152°22'1 1.9
2018-Jun-15 07:00S 33°05' E 152°22'4 8.1
2018-Jun-15 06:30S 33°09' E 152°24'2 4.1
2018-Jun-15 05:56S 33°11' E 152°24'1 2.4
2018-Jun-15 05:29S 33°12' E 152°22'1 2.4
2018-Jun-15 04:59S 33°12' E 152°21'1 2.5
2018-Jun-15 04:26S 33°12' E 152°19'1 2.4
2018-Jun-15 03:59S 33°13' E 152°18'1 2.3
2018-Jun-15 03:29S 33°13' E 152°17'1 2.4
2018-Jun-15 02:59S 33°13' E 152°15'1 2.3
2018-Jun-15 02:29S 33°13' E 152°14'1 2.3
2018-Jun-15 01:57S 33°13' E 152°12'3 7.6
2018-Jun-15 01:30S 33°17' E 152°13'4 0.2
2018-Jun-14 05:03S 33°16' E 152°18'0 0.9
2018-Jun-14 04:54S 33°16' E 152°18'0 1.0
2018-Jun-14 04:30S 33°16' E 152°18'1 1.1
2018-Jun-14 03:51S 33°15' E 152°17'1 1.3
2018-Jun-14 03:18S 33°15' E 152°17'0 1.2
2018-Jun-14 03:00S 33°14' E 152°17'1 1.3
2018-Jun-14 02:27S 33°13' E 152°17'1 1.4
2018-Jun-14 02:00S 33°13' E 152°17'1 1.4
2018-Jun-14 01:30S 33°12' E 152°17'1 1.7
2018-Jun-14 01:00S 33°11' E 152°17'1 1.7
2018-Jun-14 00:30S 33°10' E 152°17'1 1.8
2018-Jun-14 00:00S 33°10' E 152°17'1 1.8
2018-Jun-13 23:30S 33°09' E 152°16'1 1.9
2018-Jun-13 23:00S 33°08' E 152°15'4 7.4
2018-Jun-13 22:30S 33°04' E 152°15'815.3
2018-Jun-13 22:00S 32°57' E 152°13'714.4
2018-Jun-13 21:30S 32°50' E 152°15'815.2
2018-Jun-13 21:00S 32°46' E 152°23'714.9
2018-Jun-13 20:30S 32°43' E 152°31'714.6
2018-Jun-13 20:00S 32°40' E 152°39'714.6
2018-Jun-13 19:30S 32°36' E 152°47'813.9
2018-Jun-13 18:56S 32°30' E 152°52'25815.8
2018-Jun-13 02:35S 28°17' E 153°51'117.0
2018-Jun-13 02:30S 28°16' E 153°51'1016.9
2018-Jun-13 01:56S 28°06' E 153°51'1117.0
2018-Jun-13 01:19S 27°55' E 153°51'816.7
2018-Jun-13 00:50S 27°47' E 153°51'616.3
2018-Jun-13 00:27S 27°41' E 153°51'816.8
2018-Jun-12 23:57S 27°33' E 153°51'817.2
2018-Jun-12 23:30S 27°25' E 153°51'  

Dump ship's entire track history